Time;durP1;ratioP1;P1;durP2;ratioP2;P2;SDS_P1;SDS_P2;PMS_P1;PMS_P2;Temp;Humidity;BMP_temperature;BMP_pressure;BME280_temperature;BME280_humidity;BME280_pressure;Samples;Min_cycle;Max_cycle;Signal;HPM_P1;HPM_P2
2023/06/08 00:00:59;;;;;;;7.50;6.80;;;24.30;77.60;;;;;;5030748;28;20049;-77
2023/06/08 00:03:26;;;;;;;7.10;6.47;;;24.30;77.80;;;;;;5032354;28;20486;-76
2023/06/08 00:05:53;;;;;;;8.90;6.63;;;24.30;77.90;;;;;;5031312;28;20034;-76
2023/06/08 00:08:19;;;;;;;7.07;6.38;;;24.20;77.90;;;;;;5031557;28;20029;-77
2023/06/08 00:10:45;;;;;;;8.32;6.63;;;24.20;78.20;;;;;;5032260;28;20036;-76
2023/06/08 00:13:12;;;;;;;8.93;6.40;;;24.10;78.50;;;;;;5031573;28;20029;-77
2023/06/08 00:15:39;;;;;;;10.32;6.78;;;24.10;78.30;;;;;;5030644;28;20036;-77
2023/06/08 00:18:08;;;;;;;8.65;6.90;;;24.10;78.70;;;;;;5030993;28;20374;-76
2023/06/08 00:20:35;;;;;;;8.15;6.80;;;24.00;79.00;;;;;;4998743;28;20041;-77
2023/06/08 00:23:04;;;;;;;6.93;6.28;;;24.00;79.00;;;;;;5047816;28;20041;-77
2023/06/08 00:25:31;;;;;;;7.53;6.80;;;24.00;79.00;;;;;;5046993;28;20038;-77
2023/06/08 00:27:57;;;;;;;7.20;6.50;;;24.00;79.50;;;;;;5047736;28;20037;-75
2023/06/08 00:30:23;;;;;;;7.13;6.40;;;23.90;79.70;;;;;;5046801;28;20391;-77
2023/06/08 00:32:49;;;;;;;8.68;6.82;;;23.90;80.00;;;;;;5064107;28;20041;-77
2023/06/08 00:35:15;;;;;;;9.40;7.00;;;23.80;80.10;;;;;;5047276;28;20042;-76
2023/06/08 00:37:42;;;;;;;7.15;6.40;;;23.80;80.40;;;;;;5047560;28;20041;-77
2023/06/08 00:40:08;;;;;;;8.07;5.97;;;23.70;80.70;;;;;;5064129;28;20037;-78
2023/06/08 00:42:35;;;;;;;7.20;6.57;;;23.60;80.80;;;;;;5044073;28;20044;-77
2023/06/08 00:45:01;;;;;;;8.20;7.40;;;23.60;81.20;;;;;;5012464;28;20030;-76
2023/06/08 00:47:27;;;;;;;9.82;6.80;;;23.50;81.50;;;;;;5035580;28;20517;-76
2023/06/08 00:49:53;;;;;;;7.90;6.90;;;23.50;81.80;;;;;;5050918;28;20033;-76
2023/06/08 00:52:20;;;;;;;7.45;6.78;;;23.40;82.20;;;;;;5032572;28;20509;-76
2023/06/08 00:54:48;;;;;;;8.85;6.72;;;23.50;82.10;;;;;;5031035;28;20029;-77
2023/06/08 00:57:16;;;;;;;7.18;6.50;;;23.50;83.10;;;;;;5030627;28;20041;-76
2023/06/08 00:59:42;;;;;;;9.18;7.63;;;23.50;82.30;;;;;;5030839;28;20037;-77
2023/06/08 01:02:08;;;;;;;7.93;7.22;;;23.40;82.60;;;;;;5029946;28;20490;-76
2023/06/08 01:04:35;;;;;;;8.07;7.38;;;23.50;82.30;;;;;;5031034;28;20030;-76
2023/06/08 01:07:25;;;;;;;7.93;7.30;;;23.50;82.50;;;;;;5030475;28;20041;-76
2023/06/08 01:09:57;;;;;;;8.73;7.00;;;23.50;82.90;;;;;;5031998;28;20033;-76
2023/06/08 01:12:45;;;;;;;10.10;6.93;;;23.40;83.00;;;;;;5030797;28;20025;-77
2023/06/08 01:15:36;;;;;;;9.05;6.80;;;23.40;83.10;;;;;;5030879;28;20040;-76
2023/06/08 01:18:04;;;;;;;7.30;6.60;;;23.20;84.60;;;;;;5030596;28;20029;-76
2023/06/08 01:20:41;;;;;;;9.63;6.60;;;23.20;84.20;;;;;;5014395;28;20494;-77
2023/06/08 01:23:26;;;;;;;7.30;6.60;;;23.10;84.40;;;;;;5063286;28;20076;-76
2023/06/08 01:25:55;;;;;;;7.85;6.53;;;23.10;84.60;;;;;;5031601;28;20029;-77
2023/06/08 01:28:22;;;;;;;11.90;7.00;;;23.30;84.40;;;;;;5030726;28;20036;-77
2023/06/08 01:30:51;;;;;;;7.53;6.53;;;23.20;84.20;;;;;;5029546;28;20025;-76
2023/06/08 01:33:19;;;;;;;7.50;6.80;;;23.20;84.30;;;;;;5030672;28;20028;-76
2023/06/08 01:35:51;;;;;;;7.72;6.53;;;23.10;84.80;;;;;;5030562;28;20041;-77
2023/06/08 01:38:37;;;;;;;8.38;6.28;;;23.10;85.10;;;;;;5031131;28;20045;-76
2023/06/08 01:41:07;;;;;;;7.68;6.57;;;23.00;85.20;;;;;;5020769;28;20041;-77
2023/06/08 01:43:33;;;;;;;7.18;6.53;;;23.00;85.30;;;;;;5015945;28;20041;-77
2023/06/08 01:46:00;;;;;;;7.05;6.45;;;23.00;85.30;;;;;;5033429;28;20498;-76
2023/06/08 01:48:26;;;;;;;8.38;6.90;;;23.00;85.30;;;;;;5047931;28;20045;-77
2023/06/08 01:50:52;;;;;;;7.93;6.88;;;23.00;85.50;;;;;;5047482;28;20096;-77
2023/06/08 01:53:18;;;;;;;9.10;7.00;;;23.00;85.50;;;;;;5034083;28;20036;-76
2023/06/08 01:55:49;;;;;;;8.75;6.93;;;22.90;85.90;;;;;;5033547;28;20038;-76
2023/06/08 01:58:15;;;;;;;7.97;7.18;;;22.90;85.80;;;;;;5033414;28;20045;-76
2023/06/08 02:00:41;;;;;;;7.82;7.05;;;22.80;86.10;;;;;;5032596;28;20049;-76
2023/06/08 02:03:07;;;;;;;7.28;6.35;;;22.70;86.10;;;;;;5027470;28;20489;-77
2023/06/08 02:05:33;;;;;;;9.98;7.25;;;22.60;86.50;;;;;;5039374;28;20041;-76
2023/06/08 02:07:59;;;;;;;7.20;6.50;;;22.60;86.80;;;;;;5038113;28;20049;-76
2023/06/08 02:10:26;;;;;;;8.48;7.30;;;22.50;86.20;;;;;;5021461;28;20033;-77
2023/06/08 02:12:52;;;;;;;7.72;7.03;;;22.50;86.80;;;;;;5032748;28;20036;-76
2023/06/08 02:15:18;;;;;;;7.68;6.88;;;22.40;86.80;;;;;;5032520;28;20651;-76
2023/06/08 02:17:44;;;;;;;9.95;7.07;;;22.40;87.00;;;;;;5033052;28;20032;-77
2023/06/08 02:20:10;;;;;;;8.43;7.05;;;22.40;87.20;;;;;;5032816;28;20025;-77
2023/06/08 02:22:37;;;;;;;7.35;6.63;;;22.40;86.90;;;;;;5032827;28;20401;-77
2023/06/08 02:25:04;;;;;;;7.75;6.80;;;22.30;87.70;;;;;;5033098;28;20040;-76
2023/06/08 02:27:30;;;;;;;7.63;7.00;;;22.40;87.50;;;;;;5031218;28;20489;-77
2023/06/08 02:29:57;;;;;;;7.47;6.72;;;22.30;88.20;;;;;;5033155;28;20466;-77
2023/06/08 02:32:23;;;;;;;8.55;6.78;;;22.30;87.90;;;;;;5030945;28;20052;-77
2023/06/08 02:34:55;;;;;;;11.25;6.60;;;22.30;88.00;;;;;;5031650;28;20021;-76
2023/06/08 02:37:23;;;;;;;8.32;5.32;;;22.10;88.40;;;;;;5034226;28;20040;-77
2023/06/08 02:39:49;;;;;;;10.40;6.93;;;22.00;88.30;;;;;;5033146;28;20017;-77
2023/06/08 02:42:17;;;;;;;7.70;7.05;;;22.00;89.20;;;;;;5033553;28;20052;-77
2023/06/08 02:44:45;;;;;;;8.77;7.05;;;22.00;89.50;;;;;;5034310;28;20033;-77
2023/06/08 02:47:12;;;;;;;8.07;6.68;;;22.00;89.50;;;;;;5035922;28;20037;-77
2023/06/08 02:49:39;;;;;;;7.43;6.72;;;21.90;89.80;;;;;;5052786;28;20025;-76
2023/06/08 02:52:05;;;;;;;7.85;7.10;;;21.90;89.70;;;;;;5037695;28;20044;-76
2023/06/08 02:54:31;;;;;;;7.28;6.65;;;21.90;89.90;;;;;;5031616;28;20040;-76
2023/06/08 02:56:58;;;;;;;7.35;6.60;;;21.90;89.60;;;;;;5015580;28;20049;-76
2023/06/08 02:59:24;;;;;;;7.65;6.30;;;21.90;90.10;;;;;;5032757;28;20037;-76
2023/06/08 03:01:53;;;;;;;7.32;6.22;;;21.80;90.30;;;;;;5031585;28;20053;-76
2023/06/08 03:04:23;;;;;;;8.10;6.53;;;21.80;90.20;;;;;;5033756;28;20037;-76
2023/06/08 03:06:53;;;;;;;6.90;6.13;;;21.80;90.30;;;;;;5032448;28;20037;-77
2023/06/08 03:09:23;;;;;;;7.68;6.40;;;21.90;90.30;;;;;;5032732;28;20022;-76
2023/06/08 03:11:49;;;;;;;6.45;5.80;;;21.80;90.40;;;;;;5032059;28;20493;-77
2023/06/08 03:14:18;;;;;;;8.35;6.00;;;21.70;90.50;;;;;;5032590;28;20033;-77
2023/06/08 03:16:45;;;;;;;7.80;6.40;;;21.60;90.80;;;;;;5031711;28;20034;-77
2023/06/08 03:19:12;;;;;;;7.90;6.25;;;21.60;91.00;;;;;;5016026;28;20025;-76
2023/06/08 03:21:41;;;;;;;10.10;6.13;;;21.50;91.20;;;;;;5033010;28;20029;-76
2023/06/08 03:24:08;;;;;;;8.00;5.95;;;21.50;91.20;;;;;;5064863;28;20030;-76
2023/06/08 03:26:34;;;;;;;6.68;6.07;;;21.50;91.10;;;;;;5033016;28;20383;-76
2023/06/08 03:29:00;;;;;;;6.65;5.95;;;21.40;91.30;;;;;;5033336;28;20029;-77
2023/06/08 03:31:29;;;;;;;9.50;6.43;;;21.30;91.60;;;;;;5031378;28;20056;-76
2023/06/08 03:33:56;;;;;;;7.40;5.88;;;21.40;91.80;;;;;;5032233;28;20021;-77
2023/06/08 03:36:33;;;;;;;8.23;6.32;;;21.30;91.70;;;;;;5031691;28;20032;-77
2023/06/08 03:39:02;;;;;;;7.20;6.47;;;21.20;91.90;;;;;;5047274;28;20029;-77
2023/06/08 03:41:28;;;;;;;6.65;5.90;;;21.10;92.10;;;;;;5047703;28;20036;-78
2023/06/08 03:43:55;;;;;;;8.05;6.25;;;21.10;92.30;;;;;;5065066;28;20026;-77
2023/06/08 03:46:21;;;;;;;10.10;5.93;;;21.10;92.00;;;;;;5032079;28;20399;-77
2023/06/08 03:48:50;;;;;;;6.45;5.85;;;21.10;92.30;;;;;;5081952;28;20028;-77
2023/06/08 03:51:17;;;;;;;9.68;6.05;;;21.20;92.20;;;;;;5052954;28;20025;-77
2023/06/08 03:53:43;;;;;;;7.53;6.28;;;21.10;92.40;;;;;;5051303;28;20056;-76
2023/06/08 03:56:09;;;;;;;6.80;6.10;;;21.10;92.70;;;;;;5046571;28;20030;-77
2023/06/08 03:58:35;;;;;;;6.13;5.53;;;21.10;92.50;;;;;;5031856;28;20025;-77
2023/06/08 04:01:01;;;;;;;6.55;5.88;;;21.00;92.70;;;;;;5030937;28;20052;-77
2023/06/08 04:03:28;;;;;;;6.55;5.95;;;21.00;93.00;;;;;;5031607;28;20402;-77
2023/06/08 04:05:54;;;;;;;8.10;6.00;;;21.00;92.90;;;;;;5032022;28;20030;-77
2023/06/08 04:08:21;;;;;;;6.65;5.80;;;21.00;93.20;;;;;;5031241;28;20462;-77
2023/06/08 04:10:47;;;;;;;8.68;5.97;;;21.00;93.30;;;;;;5031405;28;20129;-77
2023/06/08 04:13:13;;;;;;;9.43;5.68;;;21.00;93.20;;;;;;5032613;28;20036;-77
2023/06/08 04:15:40;;;;;;;8.35;6.03;;;20.90;93.50;;;;;;5013733;28;20053;-77
2023/06/08 04:18:06;;;;;;;7.38;5.53;;;20.90;93.60;;;;;;5032448;28;20493;-77
2023/06/08 04:20:32;;;;;;;7.22;5.50;;;21.00;93.50;;;;;;5014206;28;20049;-77
2023/06/08 04:22:58;;;;;;;10.07;5.90;;;20.90;93.40;;;;;;5031992;28;20521;-77
2023/06/08 04:25:25;;;;;;;5.95;5.35;;;20.90;93.60;;;;;;5032158;28;20033;-77
2023/06/08 04:27:52;;;;;;;6.47;5.53;;;20.90;93.60;;;;;;5047670;28;20474;-77
2023/06/08 04:30:18;;;;;;;6.93;5.68;;;20.90;93.70;;;;;;5046949;28;20363;-77
2023/06/08 04:32:45;;;;;;;6.07;5.53;;;20.80;93.90;;;;;;5032238;28;20040;-77
2023/06/08 04:35:11;;;;;;;6.05;5.45;;;20.90;94.10;;;;;;5047228;28;20022;-77
2023/06/08 04:37:37;;;;;;;6.85;5.60;;;20.80;94.10;;;;;;5031832;28;20486;-77
2023/06/08 04:40:04;;;;;;;8.65;5.75;;;20.70;94.20;;;;;;5030990;28;20030;-78
2023/06/08 04:42:33;;;;;;;8.00;5.95;;;20.70;94.30;;;;;;5030777;28;20045;-77
2023/06/08 04:45:00;;;;;;;7.53;5.60;;;20.70;94.20;;;;;;5014545;28;20041;-77
2023/06/08 04:47:29;;;;;;;6.47;5.80;;;20.60;94.60;;;;;;5035753;28;20156;-77
2023/06/08 04:49:58;;;;;;;9.65;5.68;;;20.60;94.80;;;;;;5051052;28;20021;-77
2023/06/08 04:52:26;;;;;;;6.80;5.57;;;20.70;94.80;;;;;;5031825;28;20033;-77
2023/06/08 04:54:52;;;;;;;7.72;5.20;;;20.70;94.50;;;;;;5030849;28;20028;-76
2023/06/08 04:57:21;;;;;;;7.70;5.35;;;20.60;94.90;;;;;;5030645;28;20501;-76
2023/06/08 04:59:48;;;;;;;5.82;5.20;;;20.50;95.60;;;;;;5031248;28;20195;-77
2023/06/08 05:02:14;;;;;;;6.45;5.43;;;20.50;95.10;;;;;;5029901;28;20486;-77
2023/06/08 05:04:40;;;;;;;8.52;5.82;;;20.50;95.10;;;;;;5030953;28;20033;-77
2023/06/08 05:07:06;;;;;;;8.43;5.30;;;20.60;95.50;;;;;;5030188;28;20038;-77
2023/06/08 05:09:32;;;;;;;5.82;5.30;;;20.70;95.20;;;;;;5032036;28;20029;-77
2023/06/08 05:11:58;;;;;;;8.02;6.07;;;20.80;95.40;;;;;;5030422;28;20101;-76
2023/06/08 05:14:24;;;;;;;5.97;5.38;;;20.80;95.20;;;;;;5031960;28;20036;-77
2023/06/08 05:16:50;;;;;;;7.93;5.18;;;20.80;95.20;;;;;;5031198;28;20034;-77
2023/06/08 05:19:16;;;;;;;7.68;5.80;;;20.80;95.00;;;;;;5034278;28;20026;-78
2023/06/08 05:21:43;;;;;;;7.68;5.80;;;21.00;94.80;;;;;;5033444;28;20510;-78
2023/06/08 05:24:10;;;;;;;6.97;5.55;;;21.00;95.00;;;;;;5051285;28;20025;-78
2023/06/08 05:26:36;;;;;;;3.95;3.63;;;21.10;94.90;;;;;;5067326;28;20471;-77
2023/06/08 05:29:02;;;;;;;6.90;5.57;;;21.10;94.80;;;;;;5050322;28;20042;-78
2023/06/08 05:31:28;;;;;;;5.55;5.05;;;21.10;95.00;;;;;;5034711;28;20030;-77
2023/06/08 05:33:55;;;;;;;6.25;5.68;;;21.20;94.60;;;;;;5035681;28;20359;-77
2023/06/08 05:36:21;;;;;;;6.28;5.68;;;21.30;94.80;;;;;;5034733;28;20044;-78
2023/06/08 05:38:47;;;;;;;9.75;6.05;;;21.50;94.70;;;;;;5034181;28;20025;-78
2023/06/08 05:41:13;;;;;;;8.05;5.88;;;21.80;94.40;;;;;;5035252;28;20034;-78
2023/06/08 05:43:39;;;;;;;8.02;5.55;;;21.80;94.20;;;;;;5017415;28;20060;-79
2023/06/08 05:46:05;;;;;;;7.13;5.68;;;21.80;94.20;;;;;;5034411;28;20041;-78
2023/06/08 05:48:31;;;;;;;5.93;5.13;;;21.70;94.20;;;;;;5048578;28;20410;-78
2023/06/08 05:50:57;;;;;;;9.32;5.72;;;21.70;94.20;;;;;;5047841;28;20036;-78
2023/06/08 05:53:23;;;;;;;8.45;5.75;;;21.70;94.30;;;;;;5034023;28;20405;-77
2023/06/08 05:55:49;;;;;;;6.63;5.88;;;21.80;94.30;;;;;;5034943;28;20025;-78
2023/06/08 05:58:17;;;;;;;7.95;6.10;;;22.00;94.30;;;;;;5017373;28;20489;-78
2023/06/08 06:00:43;;;;;;;7.65;5.78;;;22.20;94.70;;;;;;5016345;28;20048;-78
2023/06/08 06:03:09;;;;;;;7.75;5.70;;;22.20;93.90;;;;;;5017111;28;20054;-78
2023/06/08 06:05:35;;;;;;;9.20;6.18;;;22.10;94.40;;;;;;5033209;28;20057;-78
2023/06/08 06:08:01;;;;;;;9.90;6.00;;;22.00;94.10;;;;;;5035009;28;20030;-78
2023/06/08 06:10:27;;;;;;;6.28;5.53;;;22.10;94.30;;;;;;5034705;28;20376;-78
2023/06/08 06:12:53;;;;;;;8.32;5.72;;;22.00;94.40;;;;;;5033303;28;20037;-78
2023/06/08 06:15:19;;;;;;;8.02;5.53;;;21.90;94.50;;;;;;5033981;28;20065;-78
2023/06/08 06:17:45;;;;;;;8.38;5.85;;;21.70;94.60;;;;;;5034653;28;20030;-77
2023/06/08 06:20:12;;;;;;;5.93;5.03;;;21.60;95.00;;;;;;5032352;28;20041;-78
2023/06/08 06:22:38;;;;;;;5.90;5.40;;;21.60;95.00;;;;;;5049996;28;20040;-77
2023/06/08 06:25:04;;;;;;;9.45;5.78;;;21.50;95.10;;;;;;5049979;28;20044;-78
2023/06/08 06:27:30;;;;;;;7.30;5.97;;;21.40;95.50;;;;;;5034260;28;20048;-78
2023/06/08 06:29:56;;;;;;;7.40;5.90;;;21.50;95.70;;;;;;5032489;28;20475;-78
2023/06/08 06:32:22;;;;;;;8.60;5.57;;;21.60;95.10;;;;;;5032000;28;20045;-77
2023/06/08 06:34:49;;;;;;;6.35;5.40;;;21.50;95.30;;;;;;5032977;28;20036;-78
2023/06/08 06:37:15;;;;;;;8.27;6.00;;;21.40;95.50;;;;;;5032745;28;20045;-79
2023/06/08 06:39:41;;;;;;;7.28;5.70;;;21.50;95.50;;;;;;5033191;28;20030;-78
2023/06/08 06:42:07;;;;;;;11.45;6.15;;;21.40;95.70;;;;;;5033878;28;20030;-78
2023/06/08 06:44:33;;;;;;;7.55;5.75;;;21.50;95.70;;;;;;5016493;28;20513;-78
2023/06/08 06:46:59;;;;;;;7.20;5.70;;;21.50;95.70;;;;;;5035130;28;20046;-78
2023/06/08 06:49:25;;;;;;;8.63;5.60;;;21.60;95.50;;;;;;5052705;28;20509;-78
2023/06/08 06:51:51;;;;;;;12.55;6.43;;;21.60;95.60;;;;;;5038910;28;20037;-78
2023/06/08 06:54:17;;;;;;;10.75;6.13;;;21.70;95.80;;;;;;5033982;28;20554;-78
2023/06/08 06:56:43;;;;;;;11.85;6.18;;;22.10;95.50;;;;;;5033578;28;20029;-77
2023/06/08 06:59:10;;;;;;;10.75;6.38;;;22.30;95.10;;;;;;5034089;28;20455;-78
2023/06/08 07:01:36;;;;;;;9.60;6.68;;;22.50;94.60;;;;;;5031887;28;20026;-78
2023/06/08 07:04:05;;;;;;;9.07;6.47;;;22.70;94.10;;;;;;5033598;28;20042;-77
2023/06/08 07:06:32;;;;;;;8.30;6.28;;;22.70;94.10;;;;;;5032467;28;20048;-78
2023/06/08 07:08:59;;;;;;;7.35;6.25;;;22.80;94.10;;;;;;5032689;28;20136;-77
2023/06/08 07:11:26;;;;;;;11.68;6.28;;;23.00;94.30;;;;;;5030696;28;20065;-77
2023/06/08 07:13:52;;;;;;;7.20;6.38;;;23.10;93.70;;;;;;5032188;28;20040;-77
2023/06/08 07:16:21;;;;;;;7.60;6.88;;;23.00;94.00;;;;;;5014799;28;20033;-78
2023/06/08 07:18:48;;;;;;;8.38;7.10;;;22.90;94.20;;;;;;5033354;28;20022;-77
2023/06/08 07:21:14;;;;;;;12.20;6.85;;;22.80;94.40;;;;;;5032257;28;20382;-77
2023/06/08 07:23:42;;;;;;;7.30;6.60;;;23.00;94.50;;;;;;5032168;28;20041;-77
2023/06/08 07:26:08;;;;;;;7.85;7.05;;;23.20;94.00;;;;;;5032139;28;20489;-79
2023/06/08 07:28:34;;;;;;;7.30;6.60;;;23.40;93.80;;;;;;5032117;28;20033;-79
2023/06/08 07:31:00;;;;;;;8.25;7.43;;;23.60;93.90;;;;;;5032621;28;20034;-78
2023/06/08 07:33:26;;;;;;;9.57;7.38;;;23.80;93.60;;;;;;5048425;28;20115;-77
2023/06/08 07:35:52;;;;;;;11.68;7.70;;;24.00;93.00;;;;;;5048326;28;20025;-78
2023/06/08 07:38:18;;;;;;;7.90;7.18;;;24.00;92.80;;;;;;5031991;28;20039;-78
2023/06/08 07:40:45;;;;;;;11.85;7.30;;;24.00;92.50;;;;;;5064070;28;20383;-78
2023/06/08 07:43:11;;;;;;;8.40;7.60;;;24.00;93.00;;;;;;5048527;28;20037;-79
2023/06/08 07:45:37;;;;;;;9.40;7.57;;;24.20;92.40;;;;;;5020777;28;20033;-78
2023/06/08 07:48:03;;;;;;;8.70;6.95;;;24.30;92.40;;;;;;5041762;28;20056;-78
2023/06/08 07:50:29;;;;;;;8.25;7.45;;;24.50;92.30;;;;;;5048591;28;21424;-78
2023/06/08 07:52:55;;;;;;;12.95;7.88;;;24.70;91.60;;;;;;5031822;28;20089;-78
2023/06/08 07:55:21;;;;;;;9.05;8.23;;;24.70;91.20;;;;;;5031353;28;20459;-78
2023/06/08 07:57:48;;;;;;;9.52;7.88;;;24.70;91.20;;;;;;5032972;28;20033;-78
2023/06/08 08:00:14;;;;;;;8.63;7.93;;;24.90;91.20;;;;;;5030195;28;20033;-78
2023/06/08 08:02:41;;;;;;;8.85;8.05;;;24.90;91.30;;;;;;5031509;28;20033;-78
2023/06/08 08:05:10;;;;;;;8.30;7.57;;;25.00;91.10;;;;;;5031617;28;20029;-77
2023/06/08 08:07:36;;;;;;;9.35;8.18;;;25.20;91.60;;;;;;5031400;28;20520;-78
2023/06/08 08:10:03;;;;;;;9.18;8.30;;;25.30;91.00;;;;;;5048172;28;20033;-78
2023/06/08 08:12:29;;;;;;;9.55;8.30;;;25.60;90.80;;;;;;5064362;28;20057;-78
2023/06/08 08:14:55;;;;;;;9.20;8.30;;;25.50;90.50;;;;;;5047545;28;20036;-77
2023/06/08 08:17:21;;;;;;;9.00;8.07;;;25.40;90.50;;;;;;5063836;28;20033;-77
2023/06/08 08:19:47;;;;;;;9.73;8.80;;;25.50;90.60;;;;;;5032406;28;20025;-78
2023/06/08 08:22:13;;;;;;;9.70;8.88;;;25.70;90.00;;;;;;5014645;28;20052;-78
2023/06/08 08:24:39;;;;;;;9.95;9.00;;;25.70;89.20;;;;;;5031210;28;20367;-77
2023/06/08 08:27:06;;;;;;;9.43;8.50;;;25.80;89.30;;;;;;5032272;28;20038;-77
2023/06/08 08:29:32;;;;;;;10.65;9.55;;;25.90;88.80;;;;;;5032147;28;20035;-78
2023/06/08 08:31:58;;;;;;;9.65;8.93;;;26.00;88.30;;;;;;5030217;28;20041;-76
2023/06/08 08:34:24;;;;;;;9.68;8.88;;;26.00;87.80;;;;;;5031169;28;20388;-77
2023/06/08 08:36:51;;;;;;;10.57;9.18;;;26.00;88.10;;;;;;5030764;28;20033;-78
2023/06/08 08:39:17;;;;;;;10.70;9.80;;;26.10;88.10;;;;;;5032286;28;20467;-78
2023/06/08 08:41:43;;;;;;;10.40;9.50;;;26.10;87.20;;;;;;5031894;28;20037;-77
2023/06/08 08:44:10;;;;;;;9.43;8.60;;;26.10;87.50;;;;;;5030725;28;20048;-77
2023/06/08 08:46:38;;;;;;;11.13;9.40;;;26.00;87.70;;;;;;5030284;28;20049;-78
2023/06/08 08:49:15;;;;;;;10.23;9.43;;;26.00;87.30;;;;;;5050118;28;20037;-77
2023/06/08 08:51:43;;;;;;;10.05;9.05;;;26.00;87.40;;;;;;5039985;28;20036;-77
2023/06/08 08:54:12;;;;;;;10.05;9.15;;;26.10;86.80;;;;;;5034981;28;20037;-77
2023/06/08 08:56:38;;;;;;;10.55;9.55;;;26.20;86.70;;;;;;5034031;28;20041;-76
2023/06/08 08:59:05;;;;;;;9.98;9.18;;;26.30;87.60;;;;;;5035829;28;20033;-77
2023/06/08 09:01:34;;;;;;;10.90;9.98;;;26.40;87.40;;;;;;5035277;28;20044;-77
2023/06/08 09:04:00;;;;;;;11.00;9.50;;;26.50;85.60;;;;;;5035042;28;20045;-77
2023/06/08 09:06:30;;;;;;;10.55;9.75;;;26.60;86.10;;;;;;5035771;28;20466;-77
2023/06/08 09:08:56;;;;;;;10.65;9.80;;;26.60;84.60;;;;;;5034974;28;20037;-77
2023/06/08 09:11:22;;;;;;;11.30;9.90;;;26.60;85.50;;;;;;5034303;28;20033;-77
2023/06/08 09:13:48;;;;;;;10.77;9.88;;;26.90;86.10;;;;;;5034486;28;20044;-77
2023/06/08 09:16:16;;;;;;;10.93;9.93;;;27.20;85.40;;;;;;5033972;28;20478;-78
2023/06/08 09:18:43;;;;;;;11.02;10.23;;;27.30;84.50;;;;;;5034618;28;20390;-78
2023/06/08 09:21:41;;;;;;;10.80;9.90;;;27.30;83.60;;;;;;5035868;28;20092;-77
2023/06/08 09:24:18;;;;;;;10.88;9.98;;;27.20;83.90;;;;;;5031449;28;20046;-77
2023/06/08 09:26:48;;;;;;;10.77;9.98;;;27.20;84.00;;;;;;5036710;28;20053;-77
2023/06/08 09:29:34;;;;;;;;;;;27.40;83.50;;;;;;5015105;28;20048;-78
2023/06/08 09:32:01;;;;;;;10.80;9.80;;;27.30;84.10;;;;;;5030522;28;20370;-77
2023/06/08 09:34:29;;;;;;;10.82;9.88;;;27.40;84.30;;;;;;5034145;28;20371;-77
2023/06/08 09:37:08;;;;;;;11.05;10.25;;;27.60;84.00;;;;;;5066651;28;20108;-77
2023/06/08 09:39:42;;;;;;;11.10;10.30;;;27.60;81.80;;;;;;5050829;28;20028;-78
2023/06/08 09:42:09;;;;;;;11.45;10.43;;;27.70;81.80;;;;;;5049767;28;20025;-77
2023/06/08 09:44:36;;;;;;;12.30;11.40;;;27.80;81.90;;;;;;5050639;28;20486;-77
2023/06/08 09:47:21;;;;;;;11.13;10.43;;;28.00;82.20;;;;;;5032821;28;20054;-78
2023/06/08 09:49:51;;;;;;;12.35;11.45;;;27.80;80.80;;;;;;5035374;28;20021;-78
2023/06/08 09:52:21;;;;;;;12.43;11.52;;;27.80;80.60;;;;;;5034975;28;20037;-78
2023/06/08 09:54:47;;;;;;;;;;;27.90;80.60;;;;;;5018317;28;20021;-77
2023/06/08 09:57:15;;;;;;;11.52;10.70;;;28.10;80.80;;;;;;5034428;28;20000;-77
2023/06/08 09:59:46;;;;;;;11.95;10.95;;;28.20;80.00;;;;;;5034049;28;20022;-78
2023/06/08 10:02:30;;;;;;;12.20;11.32;;;28.20;79.60;;;;;;5017261;28;20511;-77
2023/06/08 10:04:58;;;;;;;12.55;11.65;;;28.20;78.80;;;;;;5033146;28;20589;-76
2023/06/08 10:07:25;;;;;;;13.85;12.23;;;28.20;78.60;;;;;;5033654;28;20032;-77
2023/06/08 10:09:59;;;;;;;12.80;11.93;;;28.50;79.20;;;;;;5017460;28;20034;-77
2023/06/08 10:12:30;;;;;;;12.70;11.70;;;28.60;79.00;;;;;;5017566;28;20029;-77
2023/06/08 10:14:57;;;;;;;13.18;12.18;;;28.60;77.70;;;;;;5033789;28;20057;-77
2023/06/08 10:17:24;;;;;;;13.60;12.50;;;28.50;77.60;;;;;;5016639;28;20426;-77
2023/06/08 10:19:50;;;;;;;12.30;11.55;;;28.70;77.20;;;;;;5017340;28;20022;-77
2023/06/08 10:22:17;;;;;;;13.27;12.18;;;28.70;76.00;;;;;;5032758;28;20045;-77
2023/06/08 10:24:48;;;;;;;12.85;11.80;;;28.90;75.50;;;;;;5034554;28;20041;-77
2023/06/08 10:27:23;;;;;;;13.68;12.57;;;29.00;75.30;;;;;;5032102;28;20525;-78
2023/06/08 10:29:57;;;;;;;12.80;11.70;;;29.00;74.10;;;;;;5046246;28;20594;-77
2023/06/08 10:32:33;;;;;;;13.88;12.75;;;29.00;73.20;;;;;;5047348;28;20037;-77
2023/06/08 10:35:04;;;;;;;13.02;11.82;;;28.90;73.10;;;;;;5033030;28;20390;-77
2023/06/08 10:37:31;;;;;;;13.38;12.10;;;28.80;73.10;;;;;;5049301;28;20485;-77
2023/06/08 10:40:03;;;;;;;13.38;12.48;;;28.90;73.30;;;;;;5065897;28;20483;-78
2023/06/08 10:42:30;;;;;;;12.82;11.82;;;28.90;72.90;;;;;;5049070;28;20029;-78
2023/06/08 10:45:00;;;;;;;13.35;12.52;;;28.90;73.80;;;;;;5032666;28;20045;-77
2023/06/08 10:47:26;;;;;;;13.02;12.10;;;29.00;73.40;;;;;;5054117;28;20402;-78
2023/06/08 10:50:01;;;;;;;14.23;12.68;;;29.30;72.40;;;;;;5052969;28;20041;-77
2023/06/08 10:52:27;;;;;;;14.30;13.02;;;29.50;71.80;;;;;;5033607;28;20021;-78
2023/06/08 10:54:57;;;;;;;13.27;12.38;;;29.40;71.40;;;;;;5033679;28;20029;-78
2023/06/08 10:57:37;;;;;;;13.50;12.55;;;29.40;71.00;;;;;;5016213;28;20025;-78
2023/06/08 11:00:27;;;;;;;13.80;12.95;;;29.40;71.70;;;;;;5031854;28;20029;-77
2023/06/08 11:02:53;;;;;;;13.80;12.80;;;29.40;72.50;;;;;;5026291;28;20037;-77
2023/06/08 11:05:20;;;;;;;14.32;12.88;;;29.40;70.90;;;;;;5032667;28;20048;-77
2023/06/08 11:07:46;;;;;;;14.80;13.57;;;29.40;70.40;;;;;;5032712;28;20029;-77
2023/06/08 11:10:12;;;;;;;13.55;12.45;;;29.30;71.50;;;;;;5031878;28;20029;-78
2023/06/08 11:12:38;;;;;;;13.77;12.85;;;29.50;70.00;;;;;;5032596;28;20029;-78
2023/06/08 11:15:05;;;;;;;13.90;12.90;;;29.60;70.20;;;;;;5031184;28;20033;-78
2023/06/08 11:17:44;;;;;;;15.25;13.88;;;29.70;69.20;;;;;;5032082;28;20041;-77
2023/06/08 11:20:13;;;;;;;14.20;13.25;;;29.70;69.90;;;;;;5016190;28;20037;-78
2023/06/08 11:22:39;;;;;;;14.35;13.25;;;29.60;70.00;;;;;;5048695;28;20029;-77
2023/06/08 11:25:07;;;;;;;15.15;14.13;;;29.60;70.70;;;;;;5048505;28;20041;-77
2023/06/08 11:27:41;;;;;;;14.32;13.23;;;29.60;69.70;;;;;;5064851;28;20032;-77
2023/06/08 11:30:20;;;;;;;14.15;13.07;;;29.60;70.90;;;;;;5048561;28;20022;-78
2023/06/08 11:32:50;;;;;;;14.75;13.40;;;29.70;71.30;;;;;;5012322;28;20026;-77
2023/06/08 11:35:21;;;;;;;14.55;13.57;;;29.90;70.90;;;;;;5029608;28;20029;-77
2023/06/08 11:37:55;;;;;;;13.45;12.65;;;29.90;69.20;;;;;;5015507;28;20046;-77
2023/06/08 11:40:21;;;;;;;14.70;13.60;;;29.90;68.40;;;;;;5031810;28;20376;-78
2023/06/08 11:42:47;;;;;;;15.20;14.10;;;30.10;69.40;;;;;;5031947;28;20481;-78
2023/06/08 11:45:14;;;;;;;15.07;13.88;;;30.10;69.10;;;;;;5047659;28;20053;-77
2023/06/08 11:47:43;;;;;;;14.20;13.25;;;30.10;68.10;;;;;;5022336;28;20041;-77
2023/06/08 11:50:10;;;;;;;13.73;12.57;;;30.10;67.70;;;;;;5051393;28;20025;-78
2023/06/08 11:52:42;;;;;;;14.25;13.25;;;30.10;68.20;;;;;;5015320;28;20474;-77
2023/06/08 11:55:13;;;;;;;14.63;13.48;;;30.30;68.30;;;;;;5031855;28;20031;-77
2023/06/08 11:57:47;;;;;;;15.55;14.27;;;30.40;68.40;;;;;;5011961;28;20034;-77
2023/06/08 12:00:26;;;;;;;14.80;13.73;;;30.60;68.30;;;;;;5011786;28;20514;-78
2023/06/08 12:02:53;;;;;;;16.48;15.18;;;30.60;66.80;;;;;;5031559;28;20026;-77
2023/06/08 12:05:31;;;;;;;14.60;13.70;;;30.80;66.30;;;;;;5014552;28;20065;-77
2023/06/08 12:08:08;;;;;;;14.88;13.88;;;30.80;65.10;;;;;;5015469;28;20035;-78
2023/06/08 12:10:35;;;;;;;16.45;12.60;;;30.50;65.40;;;;;;5014907;28;20050;-77
2023/06/08 12:13:06;;;;;;;15.23;13.90;;;30.30;65.80;;;;;;5047503;28;20042;-77
2023/06/08 12:15:51;;;;;;;15.82;13.18;;;30.20;66.90;;;;;;4998161;28;20403;-78
2023/06/08 12:18:17;;;;;;;15.40;13.95;;;30.10;67.60;;;;;;5015725;28;20042;-78
2023/06/08 12:20:51;;;;;;;15.55;14.32;;;30.30;65.80;;;;;;5031192;28;20025;-78
2023/06/08 12:23:17;;;;;;;15.40;14.30;;;30.50;66.00;;;;;;5030773;28;20371;-78
2023/06/08 12:25:44;;;;;;;16.05;14.70;;;30.70;65.00;;;;;;5042640;28;20053;-78
2023/06/08 12:28:22;;;;;;;15.13;14.18;;;30.90;65.30;;;;;;5012353;28;20033;-77
2023/06/08 12:30:48;;;;;;;15.82;14.73;;;31.00;63.70;;;;;;5017248;28;20029;-77
2023/06/08 12:33:18;;;;;;;14.23;13.23;;;31.00;62.60;;;;;;5032440;28;20048;-78
2023/06/08 12:35:49;;;;;;;14.98;13.70;;;31.00;64.20;;;;;;5031649;28;20030;-77
2023/06/08 12:38:16;;;;;;;21.05;13.63;;;31.00;64.60;;;;;;5047351;28;20030;-78
2023/06/08 12:40:52;;;;;;;13.93;13.13;;;31.00;63.50;;;;;;5031992;28;20026;-78
2023/06/08 12:43:19;;;;;;;14.98;14.07;;;31.00;62.40;;;;;;5031017;28;20078;-78
2023/06/08 12:45:45;;;;;;;13.90;12.63;;;30.90;61.30;;;;;;5030461;28;20513;-78